Time;durP1;ratioP1;P1;durP2;ratioP2;P2;SDS_P1;SDS_P2;PMS_P1;PMS_P2;Temp;Humidity;BMP_temperature;BMP_pressure;BME280_temperature;BME280_humidity;BME280_pressure;Samples;Min_cycle;Max_cycle;Signal;HPM_P1;HPM_P2
2022/02/08 00:02:30;;;;;;;13.70;3.30;;;;;6.40;102321.00;;;;9606557;30;20222;-78
2022/02/08 00:07:33;;;;;;;15.17;3.80;;;;;6.40;102323.00;;;;9579916;30;20276;-78
2022/02/08 00:12:35;;;;;;;19.03;4.40;;;;;6.50;102321.00;;;;9613938;30;20218;-80
2022/02/08 00:17:37;;;;;;;18.23;4.37;;;;;6.50;102301.00;;;;9585081;30;20643;-79
2022/02/08 00:22:38;;;;;;;11.77;3.37;;;;;6.50;102304.00;;;;9605069;30;20294;-79
2022/02/08 00:27:40;;;;;;;23.07;4.13;;;;;6.50;102307.00;;;;9601515;30;20229;-79
2022/02/08 00:32:42;;;;;;;16.20;3.93;;;;;6.40;102304.00;;;;9598608;30;20209;-80
2022/02/08 00:37:44;;;;;;;12.10;3.60;;;;;6.40;102298.00;;;;9606071;30;20218;-79
2022/02/08 00:42:46;;;;;;;14.97;3.77;;;;;6.50;102288.00;;;;9599081;30;20273;-79
2022/02/08 00:48:12;;;;;;;14.97;3.57;;;;;6.50;102281.00;;;;9599354;30;20206;-80
2022/02/08 00:53:10;;;;;;;14.07;4.23;;;;;6.60;102269.00;;;;9625976;30;20222;-79
2022/02/08 00:58:12;;;;;;;15.40;4.10;;;;;6.70;102254.00;;;;9610558;30;20225;-79
2022/02/08 01:03:16;;;;;;;15.73;4.03;;;;;6.70;102256.00;;;;9617176;30;20232;-78
2022/02/08 01:08:19;;;;;;;14.33;3.77;;;;;6.80;102255.00;;;;9622814;30;20228;-79
2022/02/08 01:13:23;;;;;;;17.67;4.07;;;;;6.80;102241.00;;;;9606759;30;20228;-78
2022/02/08 01:18:27;;;;;;;15.97;3.97;;;;;6.90;102238.00;;;;9589937;30;20632;-79
2022/02/08 01:23:29;;;;;;;11.63;4.00;;;;;7.00;102241.00;;;;9592388;30;20655;-78
2022/02/08 01:28:51;;;;;;;10.53;3.60;;;;;7.00;102241.00;;;;9610782;30;20990;-78
2022/02/08 01:34:10;;;;;;;13.63;4.03;;;;;7.00;102246.00;;;;9594134;30;20227;-79
2022/02/08 01:39:17;;;;;;;13.33;3.90;;;;;7.00;102255.00;;;;9606943;30;20288;-79
2022/02/08 01:44:32;;;;;;;14.27;4.00;;;;;7.10;102256.00;;;;9611071;30;20208;-79
2022/02/08 01:49:57;;;;;;;12.07;5.07;;;;;7.10;102261.00;;;;9624424;30;20244;-78
2022/02/08 01:55:02;;;;;;;20.53;6.40;;;;;7.20;102258.00;;;;9616439;30;20300;-79
2022/02/08 02:00:10;;;;;;;17.50;6.60;;;;;7.20;102245.00;;;;9593577;30;20201;-78
2022/02/08 02:05:18;;;;;;;20.87;6.77;;;;;7.20;102242.00;;;;9606735;30;20267;-79
2022/02/08 02:10:21;;;;;;;15.00;5.87;;;;;7.20;102244.00;;;;9620117;30;20378;-79
2022/02/08 02:15:25;;;;;;;18.57;5.90;;;;;7.30;102245.00;;;;9627844;30;20227;-79
2022/02/08 02:20:29;;;;;;;18.57;6.33;;;;;7.30;102237.00;;;;9608637;30;20213;-80
2022/02/08 02:25:33;;;;;;;13.30;5.43;;;;;7.30;102229.00;;;;9590916;30;20217;-78
2022/02/08 02:30:36;;;;;;;12.93;5.70;;;;;7.30;102212.00;;;;9609575;30;20218;-79
2022/02/08 02:35:42;;;;;;;25.37;8.00;;;;;7.40;102219.00;;;;9588157;30;20220;-79
2022/02/08 02:40:45;;;;;;;23.80;6.37;;;;;7.40;102229.00;;;;9614433;30;20198;-79
2022/02/08 02:45:54;;;;;;;31.80;7.80;;;;;7.40;102242.00;;;;9611405;30;20668;-79
2022/02/08 02:50:59;;;;;;;22.10;6.73;;;;;7.50;102246.00;;;;9621247;30;20213;-79
2022/02/08 02:56:15;;;;;;;18.47;6.90;;;;;7.50;102234.00;;;;9602744;30;20229;-79
2022/02/08 03:01:31;;;;;;;17.67;7.37;;;;;7.50;102248.00;;;;9628173;30;20240;-79
2022/02/08 03:22:34;;;;;;;22.63;8.20;;;;;7.40;102248.00;;;;9612315;30;20205;-79
2022/02/08 03:27:37;;;;;;;19.60;7.20;;;;;7.30;102242.00;;;;9627864;30;20293;-80
2022/02/08 03:32:42;;;;;;;19.00;7.67;;;;;7.30;102243.00;;;;9615940;30;20294;-80
2022/02/08 03:37:54;;;;;;;19.13;7.57;;;;;7.40;102248.00;;;;9608317;30;20301;-79
2022/02/08 03:43:11;;;;;;;21.53;8.47;;;;;7.40;102257.00;;;;9607498;30;20209;-80
2022/02/08 03:48:17;;;;;;;20.03;8.50;;;;;7.40;102272.00;;;;9604329;30;20217;-80
2022/02/08 03:53:20;;;;;;;19.40;7.60;;;;;7.40;102266.00;;;;9592178;30;20758;-80
2022/02/08 03:58:23;;;;;;;16.97;7.20;;;;;7.30;102272.00;;;;9591997;30;20205;-80
2022/02/08 04:03:28;;;;;;;17.60;6.73;;;;;7.30;102289.00;;;;9590242;30;20234;-81
2022/02/08 04:08:31;;;;;;;12.93;8.23;;;;;7.30;102299.00;;;;9588851;30;20224;-80
2022/02/08 04:13:47;;;;;;;18.53;8.13;;;;;7.30;102305.00;;;;9592375;30;20225;-81
2022/02/08 04:45:09;;;;;;;12.60;7.67;;;;;7.40;102283.00;;;;9616970;30;20240;-80
2022/02/08 04:50:14;;;;;;;12.10;7.50;;;;;7.50;102284.00;;;;9609171;30;20324;-81
2022/02/08 05:47:43;;;;;;;13.67;8.87;;;;;7.80;102239.00;;;;9619581;30;20232;-80
2022/02/08 05:52:49;;;;;;;18.10;8.57;;;;;7.80;102249.00;;;;9624215;30;20236;-80
2022/02/08 05:57:52;;;;;;;15.07;9.60;;;;;7.90;102251.00;;;;9626054;30;20204;-80
2022/02/08 06:02:56;;;;;;;12.70;7.43;;;;;7.90;102249.00;;;;9617724;30;20216;-79
2022/02/08 06:08:05;;;;;;;15.40;8.37;;;;;7.90;102245.00;;;;9623639;30;20269;-79
2022/02/08 06:13:07;;;;;;;15.03;7.50;;;;;7.90;102248.00;;;;9599061;30;20222;-80
2022/02/08 06:18:12;;;;;;;15.77;7.73;;;;;8.00;102247.00;;;;9601853;30;20217;-80
2022/02/08 06:23:14;;;;;;;12.67;8.40;;;;;8.00;102251.00;;;;9614853;30;20301;-80
2022/02/08 06:28:17;;;;;;;21.27;9.33;;;;;8.00;102256.00;;;;9617445;30;20317;-79
2022/02/08 06:33:20;;;;;;;17.93;10.33;;;;;8.00;102264.00;;;;9613987;30;20992;-80
2022/02/08 06:38:22;;;;;;;24.43;12.13;;;;;8.10;102271.00;;;;9606726;30;20237;-79
2022/02/08 06:43:27;;;;;;;17.93;12.80;;;;;8.10;102255.00;;;;9583978;30;20228;-80
2022/02/08 06:48:30;;;;;;;18.50;12.17;;;;;8.10;102267.00;;;;9612974;30;20251;-79
2022/02/08 06:53:34;;;;;;;21.70;10.93;;;;;8.10;102272.00;;;;9598083;30;20259;-79
2022/02/08 06:58:48;;;;;;;22.67;10.83;;;;;8.10;102271.00;;;;9594045;30;20221;-79
2022/02/08 07:03:52;;;;;;;17.93;10.83;;;;;8.10;102282.00;;;;9586827;30;20663;-79
2022/02/08 07:08:55;;;;;;;14.30;11.43;;;;;8.10;102274.00;;;;9606194;30;20687;-79
2022/02/08 07:13:58;;;;;;;19.37;10.73;;;;;8.10;102279.00;;;;9626153;30;20239;-79
2022/02/08 07:19:01;;;;;;;20.30;12.10;;;;;8.10;102284.00;;;;9603051;30;20205;-79
2022/02/08 07:24:04;;;;;;;17.63;11.57;;;;;8.20;102286.00;;;;9610022;30;20265;-79
2022/02/08 07:29:06;;;;;;;14.40;9.47;;;;;8.20;102292.00;;;;9592707;30;20241;-79
2022/02/08 07:34:33;;;;;;;16.47;8.73;;;;;8.30;102293.00;;;;9590888;30;20221;-80
2022/02/08 07:39:50;;;;;;;16.67;8.07;;;;;8.40;102293.00;;;;9601933;30;20228;-80
2022/02/08 07:44:53;;;;;;;15.87;9.03;;;;;8.50;102310.00;;;;9598871;30;20265;-79
2022/02/08 07:50:00;;;;;;;10.33;6.97;;;;;8.50;102306.00;;;;9598245;30;20634;-79
2022/02/08 07:55:02;;;;;;;11.63;6.00;;;;;8.70;102304.00;;;;9594377;30;20247;-79
2022/02/08 08:00:05;;;;;;;12.03;6.17;;;;;8.70;102295.00;;;;9603560;30;20557;-79
2022/02/08 08:05:14;;;;;;;10.63;5.57;;;;;8.90;102286.00;;;;9598179;30;20315;-80
2022/02/08 08:10:18;;;;;;;9.73;5.80;;;;;9.00;102299.00;;;;9576683;30;20652;-79
2022/02/08 08:15:39;;;;;;;14.37;5.37;;;;;9.10;102302.00;;;;9606329;30;20210;-79
2022/02/08 08:20:41;;;;;;;11.67;5.73;;;;;9.20;102302.00;;;;9607608;30;20258;-80
2022/02/08 08:25:45;;;;;;;10.60;6.00;;;;;9.40;102303.00;;;;9593810;30;20276;-79
2022/02/08 08:30:47;;;;;;;9.43;5.10;;;;;9.40;102311.00;;;;9582436;30;20248;-79
2022/02/08 08:35:48;;;;;;;13.93;3.73;;;;;9.50;102309.00;;;;9592634;30;20276;-80
2022/02/08 08:51:38;;;;;;;6.07;4.10;;;;;9.80;102324.00;;;;9625699;30;20240;-79
2022/02/08 08:56:43;;;;;;;6.70;4.17;;;;;9.90;102330.00;;;;9578690;30;20287;-79
2022/02/08 09:01:48;;;;;;;8.27;4.60;;;;;10.10;102333.00;;;;9605107;30;20242;-79
2022/02/08 09:06:50;;;;;;;12.20;5.23;;;;;10.10;102341.00;;;;9604381;30;20805;-77
2022/02/08 09:12:17;;;;;;;8.93;4.20;;;;;10.20;102346.00;;;;9606009;30;20295;-79
2022/02/08 09:32:49;;;;;;;4.60;3.07;;;;;10.80;102350.00;;;;9629027;30;20223;-78
2022/02/08 09:37:50;;;;;;;5.37;2.20;;;;;11.00;102350.00;;;;9603853;30;20248;-77
2022/02/08 09:42:54;;;;;;;9.77;2.50;;;;;11.00;102345.00;;;;9614932;30;20206;-78
2022/02/08 09:48:00;;;;;;;8.70;2.00;;;;;11.10;102350.00;;;;9614913;30;20221;-77
2022/02/08 09:53:07;;;;;;;5.10;1.77;;;;;11.10;102345.00;;;;9614237;30;20305;-79
2022/02/08 09:58:10;;;;;;;4.07;1.53;;;;;11.10;102347.00;;;;9603409;30;20272;-79
2022/02/08 10:03:16;;;;;;;4.30;1.63;;;;;11.10;102351.00;;;;9598724;30;20232;-79
2022/02/08 10:08:21;;;;;;;5.27;1.80;;;;;11.00;102360.00;;;;9615259;30;20245;-80
2022/02/08 10:13:57;;;;;;;5.37;1.73;;;;;10.90;102361.00;;;;9614650;30;20280;-78
2022/02/08 10:24:09;;;;;;;5.37;1.70;;;;;10.90;102375.00;;;;9601493;30;20342;-78
2022/02/08 10:40:13;;;;;;;4.80;1.47;;;;;11.50;102349.00;;;;9610098;30;20237;-79
2022/02/08 10:45:24;;;;;;;5.80;1.40;;;;;12.00;102337.00;;;;9600136;30;20252;-76
2022/02/08 10:50:31;;;;;;;7.63;2.07;;;;;12.40;102341.00;;;;9606914;30;20575;-78
2022/02/08 11:06:40;;;;;;;10.37;1.67;;;;;12.80;102342.00;;;;9597568;30;20256;-78
2022/02/08 11:11:33;;;;;;;5.60;2.37;;;;;12.80;102339.00;;;;9610972;30;20237;-78
2022/02/08 11:17:13;;;;;;;3.60;1.37;;;;;12.80;102332.00;;;;9583443;30;20221;-78
2022/02/08 11:27:49;;;;;;;4.87;1.30;;;;;12.50;102329.00;;;;9587040;30;20202;-78
2022/02/08 11:44:04;;;;;;;5.60;1.30;;;;;13.70;102312.00;;;;9609497;30;20229;-78
2022/02/08 12:11:05;;;;;;;2.90;1.37;;;;;13.60;102295.00;;;;9666301;30;20764;-78
2022/02/08 12:27:11;;;;;;;2.80;1.50;;;;;13.70;102297.00;;;;9612135;30;20413;-78
2022/02/08 12:32:53;;;;;;;2.97;1.20;;;;;14.10;102303.00;;;;9600429;30;20225;-78
2022/02/08 12:54:36;;;;;;;3.60;1.70;;;;;14.90;102281.00;;;;9614244;30;20307;-79
2022/02/08 12:59:50;;;;;;;5.57;2.17;;;;;15.70;102288.00;;;;9625371;30;20201;-78
2022/02/08 14:05:26;;;;;;;6.63;1.67;;;;;13.70;102275.00;;;;9594780;30;20233;-78
2022/02/08 14:10:40;;;;;;;4.70;1.17;;;;;12.80;102264.00;;;;9624542;30;20236;-78
2022/02/08 14:21:07;;;;;;;4.77;1.60;;;;;13.00;102270.00;;;;9604098;30;20237;-78
2022/02/08 15:08:41;;;;;;;4.10;2.10;;;;;10.70;102330.00;;;;9610083;30;20307;-80
2022/02/08 15:13:49;;;;;;;8.27;2.87;;;;;10.70;102331.00;;;;9618350;30;20217;-80
2022/02/08 15:18:51;;;;;;;5.17;1.80;;;;;10.90;102330.00;;;;9598184;30;20209;-79
2022/02/08 15:23:53;;;;;;;6.23;1.50;;;;;11.00;102325.00;;;;9622135;30;20229;-78
2022/02/08 15:29:01;;;;;;;4.27;1.73;;;;;11.00;102318.00;;;;9622509;30;20271;-78
2022/02/08 15:34:03;;;;;;;2.83;1.50;;;;;10.80;102314.00;;;;9574021;30;20308;-79
2022/02/08 15:39:08;;;;;;;4.27;1.70;;;;;10.70;102317.00;;;;9609809;30;20213;-79
2022/02/08 15:44:14;;;;;;;4.37;1.67;;;;;10.60;102317.00;;;;9605109;30;20205;-79
2022/02/08 15:49:17;;;;;;;5.93;1.30;;;;;10.50;102310.00;;;;9604169;30;20210;-78
2022/02/08 16:10:12;;;;;;;5.43;1.67;;;;;10.30;102305.00;;;;9605388;30;20656;-79
2022/02/08 16:47:03;;;;;;;4.40;1.30;;;;;9.90;102323.00;;;;9615739;30;20667;-79
2022/02/08 16:57:34;;;;;;;3.87;1.50;;;;;9.80;102323.00;;;;9632270;30;20303;-79
2022/02/08 17:02:39;;;;;;;3.40;1.90;;;;;9.80;102327.00;;;;9584291;30;20205;-79
2022/02/08 17:07:41;;;;;;;4.10;2.10;;;;;9.80;102323.00;;;;9617074;30;20233;-79
2022/02/08 17:12:55;;;;;;;3.73;1.70;;;;;9.80;102323.00;;;;9609143;30;20252;-79
2022/02/08 17:49:42;;;;;;;1.90;1.23;;;;;9.80;102316.00;;;;9606662;30;20213;-78
2022/02/08 17:54:44;;;;;;;6.80;1.63;;;;;9.80;102306.00;;;;9597436;30;20224;-78
2022/02/08 17:59:47;;;;;;;3.23;1.27;;;;;9.80;102316.00;;;;9618313;30;20206;-78
2022/02/08 18:04:53;;;;;;;4.00;1.87;;;;;9.90;102322.00;;;;9595132;30;20237;-79
2022/02/08 18:09:55;;;;;;;3.10;1.70;;;;;9.90;102327.00;;;;9579261;30;20607;-78
2022/02/08 18:15:02;;;;;;;3.07;1.50;;;;;9.90;102328.00;;;;9610015;30;20206;-79
2022/02/08 18:57:24;;;;;;;5.00;2.03;;;;;9.70;102314.00;;;;9622268;30;20205;-79
2022/02/08 19:07:57;;;;;;;2.80;1.57;;;;;9.70;102328.00;;;;9593626;30;20268;-79
2022/02/08 19:18:42;;;;;;;3.97;2.37;;;;;9.70;102328.00;;;;9592198;30;20632;-79
2022/02/08 19:23:44;;;;;;;3.23;1.87;;;;;9.70;102325.00;;;;9592878;30;20252;-78
2022/02/08 19:28:49;;;;;;;3.90;1.57;;;;;9.70;102328.00;;;;9621146;30;20280;-78
2022/02/08 19:33:54;;;;;;;5.83;2.73;;;;;9.70;102333.00;;;;9585371;30;20702;-78
2022/02/08 19:38:59;;;;;;;4.27;2.10;;;;;9.70;102333.00;;;;9602619;30;20681;-78
2022/02/08 19:44:05;;;;;;;3.30;2.17;;;;;9.70;102329.00;;;;9587435;30;20208;-79
2022/02/08 19:49:08;;;;;;;3.50;2.60;;;;;9.70;102329.00;;;;9606898;30;20218;-80
2022/02/08 19:54:16;;;;;;;4.80;2.50;;;;;9.60;102320.00;;;;9608127;30;20229;-79
2022/02/08 19:59:31;;;;;;;3.30;2.30;;;;;9.60;102315.00;;;;9601164;30;20251;-79
2022/02/08 20:04:33;;;;;;;3.93;2.23;;;;;9.60;102316.00;;;;9592221;30;20232;-78
2022/02/08 20:09:36;;;;;;;2.33;2.10;;;;;9.60;102319.00;;;;9585525;30;20271;-79
2022/02/08 20:14:58;;;;;;;4.80;1.77;;;;;9.60;102325.00;;;;9599966;30;20225;-79
2022/02/08 20:20:08;;;;;;;3.33;1.40;;;;;9.60;102320.00;;;;9606315;30;20197;-79
2022/02/08 20:25:10;;;;;;;1.57;1.47;;;;;9.60;102320.00;;;;9627279;30;20728;-79
2022/02/08 20:30:15;;;;;;;5.00;1.40;;;;;9.60;102332.00;;;;9605006;30;20209;-79
2022/02/08 20:35:18;;;;;;;2.27;1.60;;;;;9.70;102338.00;;;;9592235;30;20260;-80
2022/02/08 20:40:20;;;;;;;2.40;1.67;;;;;9.50;102354.00;;;;9594768;30;20233;-80
2022/02/08 20:45:22;;;;;;;2.60;1.90;;;;;9.30;102363.00;;;;9588586;30;20205;-80
2022/02/08 20:50:25;;;;;;;1.53;1.40;;;;;9.30;102349.00;;;;9583962;30;20201;-79
2022/02/08 20:55:41;;;;;;;2.37;1.90;;;;;9.20;102349.00;;;;9594705;30;20328;-80
2022/02/08 21:00:45;;;;;;;3.80;1.87;;;;;9.30;102356.00;;;;9622204;30;20213;-80
2022/02/08 21:06:00;;;;;;;2.27;1.57;;;;;9.30;102341.00;;;;9608025;30;20232;-79
2022/02/08 21:11:04;;;;;;;3.20;2.10;;;;;9.30;102350.00;;;;9611429;30;20213;-79
2022/02/08 21:16:06;;;;;;;1.87;1.77;;;;;9.30;102342.00;;;;9610225;30;20233;-80
2022/02/08 21:21:10;;;;;;;2.77;2.10;;;;;9.30;102337.00;;;;9617154;30;20275;-79
2022/02/08 21:26:19;;;;;;;5.70;2.57;;;;;9.30;102337.00;;;;9610080;30;20220;-79
2022/02/08 21:47:43;;;;;;;2.10;1.37;;;;;9.30;102320.00;;;;9585996;30;20241;-79
2022/02/08 21:52:47;;;;;;;1.90;1.70;;;;;9.30;102327.00;;;;9606443;30;20259;-79
2022/02/08 21:57:53;;;;;;;2.57;1.87;;;;;9.20;102329.00;;;;9610036;30;20212;-79
2022/02/08 22:02:55;;;;;;;4.40;2.37;;;;;9.20;102324.00;;;;9608234;30;20213;-79
2022/02/08 22:34:21;;;;;;;5.40;3.70;;;;;9.20;102304.00;;;;9606306;30;20225;-79
2022/02/08 22:49:38;;;;;;;4.20;2.73;;;;;9.20;102308.00;;;;9609608;30;20193;-80
2022/02/08 22:54:40;;;;;;;4.00;2.47;;;;;9.20;102299.00;;;;9590530;30;20228;-80
2022/02/08 22:59:43;;;;;;;4.57;2.83;;;;;9.20;102296.00;;;;9608627;30;20284;-80
2022/02/08 23:04:46;;;;;;;3.00;2.70;;;;;9.20;102303.00;;;;9599531;30;20292;-80
2022/02/08 23:09:58;;;;;;;4.30;2.90;;;;;9.20;102308.00;;;;9570504;30;20243;-79
2022/02/08 23:41:48;;;;;;;9.20;8.03;;;;;9.00;102308.00;;;;9604165;30;20629;-80
2022/02/08 23:46:51;;;;;;;10.63;9.00;;;;;8.90;102307.00;;;;9595763;30;20652;-80
2022/02/08 23:51:56;;;;;;;10.77;9.00;;;;;8.90;102303.00;;;;9611394;30;20217;-80
